Dati Storici

Data ora Umidita' aria (%) Temperatura aria (°C) Rad globale (W/m²) Gonioanemometro (°) Tacoanemometro (m/s) Pioggia (mm)
18-10-2012 01:20 89.1 % 12.868 1.73 43.469 -0.016 0
18-10-2012 01:10 88.9 % 12.941 1.563 322.795 -0.015 0
18-10-2012 01:00 89.5 % 13.146 1.563 306.776 0.393 0
18-10-2012 00:50 88.4 % 12.937 1.474 281.949 0.269 0
18-10-2012 00:40 88.4 % 13.199 1.756 322.511 0.113 0
18-10-2012 00:30 88.4 % 13.174 1.538 1.141 0.375 0
18-10-2012 00:20 86.9 % 13.109 1.502 322.572 0.206 0
18-10-2012 00:10 86.8 % 13.392 1.605 341.558 -0.012 0
18-10-2012 00:00 87.4 % 13.669 1.99 358.583 0.393 0
17-10-2012 23:50 86.9 % 13.535 1.618 350.617 0.344 0
17-10-2012 23:40 86.1 % 13.597 1.798 355.558 0.362 0
17-10-2012 23:30 84.7 % 13.683 1.657 27.509 0.577 0
17-10-2012 23:20 84.9 % 14.011 1.644 320.761 0.505 0
17-10-2012 23:10 83.3 % 13.991 1.579 306.591 0.082 0
17-10-2012 23:00 82.6 % 14.379 1.793 34.537 0.541 0
17-10-2012 22:50 82.1 % 14.662 1.972 14.752 0.673 0
17-10-2012 22:40 81.5 % 14.537 1.46 342.06 0.751 0
17-10-2012 22:30 80.8 % 14.518 1.318 1.175 0.41 0
17-10-2012 22:20 78.9 % 14.582 1.164 210.178 -0.02 0
17-10-2012 22:10 77.4 % 15.231 2.408 181.649 0.083 0

I dati sono presentati in modo automatico a scopo informativo. In seguito a verifica i dati possono subire modifiche o essere invalidati e non riportati negli archivi definitivi.